Time;durP1;ratioP1;P1;durP2;ratioP2;P2;SDS_P1;SDS_P2;PMS_P1;PMS_P2;Temp;Humidity;BMP_temperature;BMP_pressure;BME280_temperature;BME280_humidity;BME280_pressure;Samples;Min_cycle;Max_cycle;Signal;HPM_P1;HPM_P2
2022/03/16 00:00:55;;;;;;;13.30;3.67;;;;;;;8.57;100.00;95138.59;5035641;28;20695;-64
2022/03/16 00:03:41;;;;;;;11.13;3.60;;;;;;;8.57;100.00;95142.81;5044931;28;20203;-64
2022/03/16 00:06:27;;;;;;;14.97;4.10;;;;;;;8.55;100.00;95139.03;5053336;28;20202;-65
2022/03/16 00:09:13;;;;;;;13.60;4.23;;;;;;;8.52;100.00;95137.94;5041337;28;20226;-65
2022/03/16 00:11:59;;;;;;;12.33;3.87;;;;;;;8.57;100.00;95152.94;5046035;28;20226;-64
2022/03/16 00:14:45;;;;;;;14.67;3.47;;;;;;;8.61;100.00;95139.22;5031774;28;20215;-64
2022/03/16 00:17:32;;;;;;;6.77;3.00;;;;;;;8.54;100.00;95140.97;5051929;28;20225;-64
2022/03/16 00:20:17;;;;;;;14.23;3.23;;;;;;;8.63;100.00;95153.16;5050156;28;20191;-65
2022/03/16 00:23:05;;;;;;;10.43;3.50;;;;;;;8.67;100.00;95151.09;5052780;28;20193;-64
2022/03/16 00:25:50;;;;;;;16.13;4.03;;;;;;;8.65;100.00;95156.22;5035533;28;20195;-64
2022/03/16 00:28:36;;;;;;;19.93;3.87;;;;;;;8.61;100.00;95152.81;5050827;28;20279;-64
2022/03/16 00:31:22;;;;;;;12.20;3.63;;;;;;;8.61;100.00;95153.59;5051107;28;20238;-64
2022/03/16 00:34:08;;;;;;;11.13;3.87;;;;;;;8.70;100.00;95155.66;5049037;28;20248;-64
2022/03/16 00:36:54;;;;;;;11.60;3.60;;;;;;;8.74;100.00;95151.59;5059451;28;20285;-64
2022/03/16 00:39:40;;;;;;;11.77;3.70;;;;;;;8.69;100.00;95160.34;5045642;28;20217;-64
2022/03/16 00:42:26;;;;;;;13.50;3.67;;;;;;;8.66;100.00;95165.88;5052755;28;20222;-64
2022/03/16 00:45:12;;;;;;;14.47;3.63;;;;;;;8.70;100.00;95161.88;5033570;28;20692;-66
2022/03/16 00:47:58;;;;;;;13.77;3.93;;;;;;;8.72;100.00;95156.75;5032118;28;20306;-64
2022/03/16 00:50:44;;;;;;;10.90;3.20;;;;;;;8.70;100.00;95155.66;5029548;28;20193;-64
2022/03/16 00:53:34;;;;;;;9.67;3.40;;;;;;;8.63;100.00;95155.88;5052641;28;20210;-64
2022/03/16 00:56:20;;;;;;;10.97;3.43;;;;;;;8.57;100.00;95163.09;5036159;28;20248;-64
2022/03/16 00:59:06;;;;;;;14.40;4.10;;;;;;;8.66;100.00;95166.66;5026743;28;20215;-64
2022/03/16 01:01:52;;;;;;;12.83;3.60;;;;;;;8.62;100.00;95157.09;5035918;28;20816;-64
2022/03/16 01:04:38;;;;;;;11.90;4.37;;;;;;;8.53;100.00;95163.19;5016236;28;20195;-64
2022/03/16 01:07:24;;;;;;;15.70;4.47;;;;;;;8.55;100.00;95160.81;5038108;28;20270;-64
2022/03/16 01:10:10;;;;;;;14.60;3.80;;;;;;;8.43;100.00;95161.56;5050760;28;20776;-64
2022/03/16 01:12:56;;;;;;;8.87;4.07;;;;;;;8.40;100.00;95157.75;5033051;28;20317;-64
2022/03/16 01:15:42;;;;;;;15.50;4.10;;;;;;;8.34;100.00;95164.97;5019852;28;20233;-64
2022/03/16 01:18:28;;;;;;;7.80;4.27;;;;;;;8.33;100.00;95157.97;5046800;28;20214;-64
2022/03/16 01:21:14;;;;;;;22.10;4.60;;;;;;;8.33;100.00;95157.22;5040102;28;20269;-64
2022/03/16 01:24:00;;;;;;;14.67;4.23;;;;;;;8.28;100.00;95165.94;5045608;28;20547;-64
2022/03/16 01:26:45;;;;;;;15.87;5.23;;;;;;;8.21;100.00;95166.13;5031221;28;20206;-64
2022/03/16 01:29:32;;;;;;;19.87;5.57;;;;;;;8.14;100.00;95167.09;5029816;28;20237;-64
2022/03/16 01:32:18;;;;;;;15.83;4.80;;;;;;;8.04;100.00;95165.44;5051072;28;20205;-64
2022/03/16 01:35:04;;;;;;;9.50;4.40;;;;;;;8.07;100.00;95171.97;5036782;28;20296;-65
2022/03/16 01:37:50;;;;;;;9.60;5.07;;;;;;;8.08;100.00;95168.81;5029837;28;20279;-64
2022/03/16 01:40:36;;;;;;;9.50;4.43;;;;;;;8.00;100.00;95172.19;5030708;28;20207;-64
2022/03/16 01:43:23;;;;;;;18.70;5.07;;;;;;;8.04;100.00;95173.59;5032244;28;20203;-64
2022/03/16 01:46:09;;;;;;;12.30;5.20;;;;;;;7.96;100.00;95166.84;5042793;28;20661;-64
2022/03/16 01:49:00;;;;;;;10.07;5.50;;;;;;;7.85;100.00;95163.69;5034225;28;20248;-64
2022/03/16 01:51:45;;;;;;;19.03;5.87;;;;;;;7.83;100.00;95160.66;5042641;28;20224;-64
2022/03/16 01:54:31;;;;;;;9.73;5.67;;;;;;;7.73;100.00;95160.94;5051722;28;20234;-64
2022/03/16 01:57:18;;;;;;;13.50;5.77;;;;;;;7.75;100.00;95172.16;5038227;28;20213;-64
2022/03/16 02:00:06;;;;;;;17.87;6.37;;;;;;;7.66;100.00;95163.88;5030124;28;20225;-64
2022/03/16 02:02:58;;;;;;;13.43;6.50;;;;;;;7.66;100.00;95167.34;5035508;28;20186;-64
2022/03/16 02:05:43;;;;;;;15.00;6.97;;;;;;;7.69;100.00;95173.88;5035812;28;20679;-64
2022/03/16 02:08:30;;;;;;;9.33;6.53;;;;;;;7.70;100.00;95165.31;5044889;28;20226;-64
2022/03/16 02:11:16;;;;;;;8.87;6.90;;;;;;;7.61;100.00;95165.16;5034001;28;20617;-64
2022/03/16 02:14:02;;;;;;;12.10;8.13;;;;;;;7.68;100.00;95166.91;5030610;28;20218;-64
2022/03/16 02:16:49;;;;;;;13.67;7.27;;;;;;;7.62;100.00;95171.38;5048837;28;20576;-64
2022/03/16 02:19:35;;;;;;;25.17;8.23;;;;;;;7.56;100.00;95165.69;5047544;28;20708;-64
2022/03/16 02:22:20;;;;;;;9.97;6.90;;;;;;;7.52;100.00;95167.75;5047103;28;20205;-64
2022/03/16 02:25:08;;;;;;;14.70;8.43;;;;;;;7.49;100.00;95163.19;5049658;28;20248;-64
2022/03/16 02:27:55;;;;;;;12.20;8.53;;;;;;;7.53;100.00;95168.50;5046155;28;20194;-64
2022/03/16 02:30:42;;;;;;;11.30;8.77;;;;;;;7.50;100.00;95161.97;5049261;28;20653;-64
2022/03/16 02:33:28;;;;;;;14.37;9.40;;;;;;;7.47;100.00;95175.66;5037082;28;20211;-64
2022/03/16 02:36:14;;;;;;;19.63;9.50;;;;;;;7.42;100.00;95168.81;5047974;28;20281;-64
2022/03/16 02:39:00;;;;;;;13.20;9.43;;;;;;;7.46;100.00;95174.13;5040684;28;20222;-64
2022/03/16 02:41:47;;;;;;;14.93;10.17;;;;;;;7.45;100.00;95169.91;5049703;28;20324;-64
2022/03/16 02:44:33;;;;;;;16.37;11.03;;;;;;;7.44;100.00;95171.09;5040840;28;20194;-64
2022/03/16 02:47:19;;;;;;;14.37;9.70;;;;;;;7.43;100.00;95169.56;5052988;28;20708;-64
2022/03/16 02:50:05;;;;;;;20.70;9.90;;;;;;;7.38;100.00;95166.19;5044941;28;20222;-64
2022/03/16 02:52:51;;;;;;;13.03;10.40;;;;;;;7.37;100.00;95180.19;5040476;28;20199;-64
2022/03/16 02:55:37;;;;;;;13.27;10.67;;;;;;;7.29;100.00;95174.22;5049552;28;20574;-64
2022/03/16 02:58:23;;;;;;;14.10;11.60;;;;;;;7.34;100.00;95181.84;5016153;28;20207;-64
2022/03/16 03:01:09;;;;;;;13.23;10.30;;;;;;;7.33;100.00;95174.09;5042701;28;20228;-64
2022/03/16 03:03:56;;;;;;;20.77;12.40;;;;;;;7.29;100.00;95173.44;5044585;28;20197;-64
2022/03/16 03:06:41;;;;;;;19.80;11.30;;;;;;;7.33;100.00;95185.72;5048491;28;20190;-64
2022/03/16 03:09:27;;;;;;;20.00;13.03;;;;;;;7.33;100.00;95179.53;5044204;28;20221;-64
2022/03/16 03:12:14;;;;;;;19.73;12.87;;;;;;;7.27;100.00;95186.69;5049973;28;20190;-64
2022/03/16 03:15:00;;;;;;;16.40;13.13;;;;;;;7.23;100.00;95189.50;5034002;28;20301;-64
2022/03/16 03:17:46;;;;;;;17.90;14.10;;;;;;;7.23;100.00;95189.50;5041918;28;20362;-64
2022/03/16 03:20:32;;;;;;;17.80;13.93;;;;;;;7.20;100.00;95198.50;5039687;28;20575;-64
2022/03/16 03:23:18;;;;;;;17.40;14.70;;;;;;;7.25;100.00;95189.06;5033907;28;20270;-64
2022/03/16 03:26:04;;;;;;;17.37;15.07;;;;;;;7.26;100.00;95188.63;5048470;28;20236;-64
2022/03/16 03:28:50;;;;;;;23.83;14.90;;;;;;;7.24;100.00;95195.69;5032703;28;20206;-64
2022/03/16 03:31:36;;;;;;;24.17;17.27;;;;;;;7.21;100.00;95194.59;5037486;28;20220;-64
2022/03/16 03:34:21;;;;;;;24.77;16.60;;;;;;;7.24;100.00;95193.75;5063267;28;20308;-64
2022/03/16 03:37:07;;;;;;;23.53;17.57;;;;;;;7.15;100.00;95190.09;5032996;28;20255;-64
2022/03/16 03:39:54;;;;;;;24.80;16.90;;;;;;;7.13;100.00;95198.69;5045289;28;20236;-64
2022/03/16 03:42:40;;;;;;;21.97;16.50;;;;;;;7.15;100.00;95196.31;5056461;28;20565;-64
2022/03/16 03:45:26;;;;;;;21.03;17.60;;;;;;;7.13;100.00;95187.81;5055650;28;20533;-64
2022/03/16 03:48:12;;;;;;;24.40;17.97;;;;;;;7.16;100.00;95192.38;5049363;28;20270;-64
2022/03/16 03:50:59;;;;;;;20.30;16.83;;;;;;;7.14;100.00;95200.19;5038030;28;20189;-64
2022/03/16 03:53:45;;;;;;;33.03;18.90;;;;;;;7.15;100.00;95207.16;5044851;28;20271;-64
2022/03/16 03:56:30;;;;;;;27.30;18.13;;;;;;;7.13;100.00;95204.13;5055736;28;20201;-64
2022/03/16 03:59:17;;;;;;;24.00;17.20;;;;;;;7.23;100.00;95222.09;5039427;28;20214;-64
2022/03/16 04:02:03;;;;;;;24.03;18.73;;;;;;;7.22;100.00;95211.66;5040794;28;20198;-64
2022/03/16 04:04:48;;;;;;;25.17;18.00;;;;;;;7.27;100.00;95222.00;5035628;28;20989;-65
2022/03/16 04:07:34;;;;;;;23.87;18.50;;;;;;;7.31;100.00;95228.09;5064104;28;20198;-64
2022/03/16 04:10:20;;;;;;;29.40;19.50;;;;;;;7.31;100.00;95238.97;5049149;28;20279;-64
2022/03/16 04:13:06;;;;;;;25.10;18.73;;;;;;;7.27;100.00;95236.34;5025407;28;20213;-64
2022/03/16 04:15:52;;;;;;;28.80;18.37;;;;;;;7.14;100.00;95234.75;5008280;28;20661;-64
2022/03/16 04:18:38;;;;;;;30.00;17.80;;;;;;;7.16;100.00;95241.28;5013461;28;20600;-64
2022/03/16 04:21:24;;;;;;;27.23;18.60;;;;;;;7.20;100.00;95244.69;5048512;28;20275;-64
2022/03/16 04:24:10;;;;;;;29.63;18.37;;;;;;;7.20;100.00;95260.19;5051588;28;20673;-64
2022/03/16 04:26:56;;;;;;;23.00;18.50;;;;;;;7.21;100.00;95250.88;5041509;28;20564;-64
2022/03/16 04:29:42;;;;;;;27.47;20.73;;;;;;;7.29;100.00;95260.38;5049305;28;20579;-64
2022/03/16 04:32:28;;;;;;;33.07;20.57;;;;;;;7.17;100.00;95247.47;5028017;28;20188;-64
2022/03/16 04:35:14;;;;;;;27.77;19.67;;;;;;;7.22;100.00;95253.16;5034999;28;20213;-64
2022/03/16 04:38:00;;;;;;;30.23;21.80;;;;;;;7.19;100.00;95251.28;5053806;28;20194;-64
2022/03/16 04:40:46;;;;;;;39.10;22.10;;;;;;;7.18;100.00;95255.19;5048482;28;20190;-64
2022/03/16 04:43:32;;;;;;;36.70;24.43;;;;;;;7.11;100.00;95258.09;5016770;28;20205;-64
2022/03/16 04:46:18;;;;;;;29.97;22.50;;;;;;;7.14;100.00;95267.34;5037811;28;20573;-64
2022/03/16 04:49:04;;;;;;;37.00;23.80;;;;;;;7.12;100.00;95256.91;5051032;28;20210;-64
2022/03/16 04:51:50;;;;;;;33.00;24.00;;;;;;;7.10;100.00;95264.72;5045517;28;20190;-64
2022/03/16 04:54:36;;;;;;;36.40;25.33;;;;;;;7.14;100.00;95270.06;5036778;28;20401;-64
2022/03/16 04:57:22;;;;;;;34.10;24.33;;;;;;;6.98;100.00;95267.34;5060531;28;20282;-64
2022/03/16 05:00:08;;;;;;;34.50;23.80;;;;;;;6.98;100.00;95268.13;5045018;28;20211;-65
2022/03/16 05:02:54;;;;;;;37.33;23.73;;;;;;;6.94;100.00;95267.44;5032353;28;20194;-64
2022/03/16 05:05:40;;;;;;;39.53;26.90;;;;;;;6.89;100.00;95272.63;5032448;28;20187;-64
2022/03/16 05:08:26;;;;;;;42.57;27.13;;;;;;;6.88;100.00;95271.09;5047240;28;20343;-64
2022/03/16 05:11:12;;;;;;;41.13;24.67;;;;;;;6.80;100.00;95275.94;5049859;28;20216;-64
2022/03/16 05:13:58;;;;;;;39.23;25.47;;;;;;;6.73;100.00;95286.94;5050944;28;20202;-64
2022/03/16 05:16:44;;;;;;;37.97;25.77;;;;;;;6.67;100.00;95294.06;5043389;28;20222;-64
2022/03/16 05:19:30;;;;;;;35.40;25.43;;;;;;;6.63;100.00;95293.38;5047873;28;20225;-64
2022/03/16 05:22:16;;;;;;;37.27;25.37;;;;;;;6.68;100.00;95301.03;5045904;28;20260;-64
2022/03/16 05:25:02;;;;;;;35.80;25.20;;;;;;;6.58;100.00;95298.53;5045835;28;20270;-65
2022/03/16 05:27:48;;;;;;;42.83;28.43;;;;;;;6.55;100.00;95300.13;5038914;28;20199;-64
2022/03/16 05:30:34;;;;;;;69.27;28.70;;;;;;;6.50;100.00;95308.78;5044645;28;20198;-65
2022/03/16 05:33:22;;;;;;;51.83;30.50;;;;;;;6.59;100.00;95310.91;5033279;28;20669;-65
2022/03/16 05:36:08;;;;;;;52.40;30.10;;;;;;;6.61;100.00;95319.41;5046562;28;20217;-65
2022/03/16 05:38:54;;;;;;;47.50;29.73;;;;;;;6.56;100.00;95309.03;5049271;28;20572;-65
2022/03/16 05:41:40;;;;;;;85.40;29.83;;;;;;;6.43;100.00;95300.78;5050362;28;20240;-65
2022/03/16 05:44:26;;;;;;;47.73;29.37;;;;;;;6.44;100.00;95307.75;5045364;28;20218;-65
2022/03/16 05:47:12;;;;;;;70.17;30.33;;;;;;;6.50;100.00;95316.16;5038458;28;20194;-64
2022/03/16 05:49:58;;;;;;;52.37;28.70;;;;;;;6.46;100.00;95323.59;5043165;28;20272;-65
2022/03/16 05:52:46;;;;;;;65.40;29.47;;;;;;;6.43;100.00;95327.16;5048549;28;20191;-64
2022/03/16 05:55:32;;;;;;;126.03;31.87;;;;;;;6.39;100.00;95327.25;5043996;28;20218;-64
2022/03/16 05:58:18;;;;;;;92.37;31.67;;;;;;;6.43;100.00;95336.03;5038426;28;20218;-65
2022/03/16 06:01:03;;;;;;;46.37;29.13;;;;;;;6.33;100.00;95342.47;5022474;28;20274;-64
2022/03/16 06:03:49;;;;;;;41.83;28.90;;;;;;;6.35;100.00;95342.81;5049775;28;20459;-64
2022/03/16 06:06:35;;;;;;;39.10;26.17;;;;;;;6.24;100.00;95347.69;5042477;28;20278;-64
2022/03/16 06:09:21;;;;;;;39.50;26.07;;;;;;;6.21;100.00;95364.78;5045835;28;20214;-64
2022/03/16 06:12:08;;;;;;;38.63;25.80;;;;;;;6.19;100.00;95350.13;5016226;28;20199;-64
2022/03/16 06:14:54;;;;;;;28.93;22.97;;;;;;;6.05;100.00;95364.72;5033705;28;20709;-64
2022/03/16 06:17:40;;;;;;;28.83;22.17;;;;;;;5.92;100.00;95372.69;5047377;28;20202;-64
2022/03/16 06:20:28;;;;;;;26.07;21.27;;;;;;;5.93;100.00;95376.19;5041059;28;20195;-64
2022/03/16 06:23:14;;;;;;;24.07;19.43;;;;;;;5.98;100.00;95373.75;5051241;28;20604;-64
2022/03/16 06:26:01;;;;;;;20.07;17.40;;;;;;;5.97;100.00;95374.94;5034300;28;20525;-64
2022/03/16 06:28:47;;;;;;;20.13;16.57;;;;;;;5.97;100.00;95380.34;5046506;28;20217;-64
2022/03/16 06:31:33;;;;;;;18.40;16.23;;;;;;;5.98;100.00;95381.13;5047527;28;20229;-64
2022/03/16 06:34:19;;;;;;;20.80;16.60;;;;;;;5.94;100.00;95378.47;5049149;28;20581;-64
2022/03/16 06:37:05;;;;;;;25.43;19.33;;;;;;;5.77;100.00;95376.06;5048268;28;20190;-64
2022/03/16 06:39:51;;;;;;;29.03;20.97;;;;;;;5.51;100.00;95387.75;5042379;28;20679;-64
2022/03/16 06:42:50;;;;;;;29.80;22.47;;;;;;;5.42;100.00;95388.28;5049997;28;20573;-64
2022/03/16 06:45:36;;;;;;;28.43;23.33;;;;;;;5.37;100.00;95386.03;5042090;28;20278;-64
2022/03/16 06:48:23;;;;;;;33.73;23.90;;;;;;;5.40;100.00;95382.50;5040894;28;20264;-64
2022/03/16 06:51:09;;;;;;;37.27;28.03;;;;;;;5.30;100.00;95388.06;5030091;28;20198;-64
2022/03/16 06:53:55;;;;;;;36.87;26.07;;;;;;;5.23;100.00;95388.19;5042783;28;20221;-64
2022/03/16 06:56:41;;;;;;;35.83;27.60;;;;;;;5.19;100.00;95401.81;5018513;28;20191;-64
2022/03/16 06:59:27;;;;;;;38.53;27.93;;;;;;;5.22;100.00;95386.66;5042080;28;20589;-64
2022/03/16 07:02:13;;;;;;;35.93;27.23;;;;;;;5.22;100.00;95397.50;5046107;28;20229;-64
2022/03/16 07:04:59;;;;;;;36.50;27.23;;;;;;;5.22;100.00;95387.44;5047501;28;20958;-64
2022/03/16 07:07:45;;;;;;;35.73;26.47;;;;;;;5.16;100.00;95396.44;5027512;28;20213;-64
2022/03/16 07:10:33;;;;;;;36.13;26.60;;;;;;;5.09;100.00;95391.13;5012647;28;20214;-64
2022/03/16 07:13:18;;;;;;;37.73;27.43;;;;;;;5.13;100.00;95391.81;5035013;28;20191;-64
2022/03/16 07:16:04;;;;;;;37.00;27.17;;;;;;;5.09;100.00;95405.41;5039389;28;20740;-65
2022/03/16 07:18:50;;;;;;;35.77;24.80;;;;;;;5.02;100.00;95407.47;5040878;28;20214;-64
2022/03/16 07:21:37;;;;;;;36.60;27.20;;;;;;;5.12;100.00;95410.03;5041256;28;20696;-64
2022/03/16 07:24:25;;;;;;;35.43;26.53;;;;;;;5.16;100.00;95407.28;5033924;28;20714;-64
2022/03/16 07:27:12;;;;;;;32.30;24.97;;;;;;;5.00;100.00;95405.16;5033046;28;20191;-64
2022/03/16 07:29:58;;;;;;;32.13;25.13;;;;;;;5.07;100.00;95410.50;5033594;28;20206;-64
2022/03/16 07:32:44;;;;;;;31.07;24.87;;;;;;;4.96;100.00;95417.97;5041286;28;20194;-64
2022/03/16 07:35:31;;;;;;;33.10;24.40;;;;;;;4.88;100.00;95416.56;5035194;28;20316;-65
2022/03/16 07:38:19;;;;;;;31.47;23.97;;;;;;;4.91;100.00;95411.09;5030940;28;20229;-64
2022/03/16 07:41:05;;;;;;;33.53;24.80;;;;;;;4.90;100.00;95409.53;5042112;28;20644;-64
2022/03/16 07:43:51;;;;;;;35.53;25.43;;;;;;;4.96;100.00;95409.88;5038776;28;20197;-64
2022/03/16 07:46:37;;;;;;;35.60;25.40;;;;;;;5.03;100.00;95412.47;5030980;28;20700;-64
2022/03/16 07:49:23;;;;;;;35.53;26.40;;;;;;;5.04;100.00;95414.00;5047190;28;20220;-64
2022/03/16 07:52:09;;;;;;;36.63;26.13;;;;;;;5.02;100.00;95415.59;5043651;28;20201;-64
2022/03/16 07:54:55;;;;;;;36.37;25.60;;;;;;;5.05;100.00;95415.53;5042808;28;20222;-64
2022/03/16 07:57:43;;;;;;;38.00;25.87;;;;;;;5.02;100.00;95415.59;5033199;28;20186;-64
2022/03/16 08:00:29;;;;;;;35.50;24.07;;;;;;;4.99;100.00;95419.88;5040829;28;20210;-64
2022/03/16 08:03:15;;;;;;;36.10;25.73;;;;;;;5.04;100.00;95424.06;5021542;28;20213;-64
2022/03/16 08:06:00;;;;;;;36.70;26.23;;;;;;;5.01;100.00;95422.16;5026558;28;20691;-64
2022/03/16 08:08:46;;;;;;;33.93;25.07;;;;;;;4.87;100.00;95425.81;5034935;28;20628;-64
2022/03/16 08:11:32;;;;;;;36.10;23.80;;;;;;;4.85;100.00;95428.94;5047036;28;20224;-64
2022/03/16 08:14:18;;;;;;;34.87;25.80;;;;;;;4.86;100.00;95429.72;5048684;28;20704;-64
2022/03/16 08:17:04;;;;;;;34.07;24.80;;;;;;;4.99;100.00;95436.09;5023707;28;20661;-64
2022/03/16 08:19:50;;;;;;;37.33;25.63;;;;;;;4.93;100.00;95438.53;5046534;28;20224;-64
2022/03/16 08:22:36;;;;;;;31.83;24.03;;;;;;;4.92;100.00;95442.38;5050743;28;20831;-64
2022/03/16 08:25:23;;;;;;;35.63;25.47;;;;;;;4.95;100.00;95446.22;5050919;28;20549;-64
2022/03/16 08:28:09;;;;;;;35.03;26.60;;;;;;;4.80;100.00;95415.88;5050686;28;20234;-64
2022/03/16 08:30:55;;;;;;;35.10;25.97;;;;;;;4.89;100.00;95445.13;5032695;28;20191;-64
2022/03/16 08:33:41;;;;;;;36.83;26.70;;;;;;;4.86;100.00;95448.66;5037744;28;20218;-65
2022/03/16 08:36:28;;;;;;;32.30;25.00;;;;;;;4.95;100.00;95432.69;5018045;28;20258;-65
2022/03/16 08:39:14;;;;;;;35.53;27.30;;;;;;;5.00;100.00;95431.47;5036246;28;20211;-64
2022/03/16 08:42:00;;;;;;;40.83;27.87;;;;;;;5.06;100.00;95430.59;5046059;28;20297;-64
2022/03/16 08:44:46;;;;;;;34.97;26.33;;;;;;;5.07;100.00;95437.56;5051563;28;20201;-64
2022/03/16 08:47:32;;;;;;;38.37;27.63;;;;;;;5.10;100.00;95436.75;5048369;28;20198;-64
2022/03/16 08:50:18;;;;;;;36.83;25.50;;;;;;;5.05;100.00;95436.41;5041470;28;20276;-64
2022/03/16 08:53:04;;;;;;;35.73;25.83;;;;;;;5.17;100.00;95446.69;5045468;28;20726;-65
2022/03/16 08:55:50;;;;;;;36.23;26.77;;;;;;;5.15;100.00;95433.56;5044889;28;20278;-65
2022/03/16 08:58:36;;;;;;;36.80;27.10;;;;;;;5.15;100.00;95436.28;5041978;28;20245;-65
2022/03/16 09:01:22;;;;;;;36.63;25.77;;;;;;;5.21;100.00;95426.50;5047115;28;20202;-65
2022/03/16 09:04:09;;;;;;;37.60;27.23;;;;;;;5.32;100.00;95437.97;5032880;28;20193;-65
2022/03/16 09:06:55;;;;;;;36.20;27.57;;;;;;;5.39;100.00;95432.44;5045240;28;20551;-64
2022/03/16 09:09:41;;;;;;;35.53;26.37;;;;;;;5.53;100.00;95436.88;5032481;28;20213;-65
2022/03/16 09:12:27;;;;;;;34.43;25.90;;;;;;;5.43;100.00;95437.81;5034532;28;20182;-65
2022/03/16 09:15:13;;;;;;;35.10;26.70;;;;;;;5.47;100.00;95435.78;5047789;28;20221;-65
2022/03/16 09:17:59;;;;;;;37.03;26.40;;;;;;;5.64;100.00;95440.94;5031735;28;20274;-65
2022/03/16 09:20:45;;;;;;;34.70;25.53;;;;;;;5.42;100.00;95444.38;5039987;28;20217;-65
2022/03/16 09:23:31;;;;;;;33.33;26.80;;;;;;;5.45;100.00;95441.63;5042631;28;20199;-65
2022/03/16 09:26:18;;;;;;;37.33;27.87;;;;;;;5.51;100.00;95445.41;5031443;28;20397;-65
2022/03/16 09:29:03;;;;;;;40.57;28.53;;;;;;;5.57;100.00;95434.84;5032617;28;20301;-65
2022/03/16 09:31:49;;;;;;;39.97;29.70;;;;;;;5.56;100.00;95434.09;5045356;28;20770;-65
2022/03/16 09:34:40;;;;;;;41.80;29.57;;;;;;;5.72;100.00;95428.00;5058802;28;20224;-65
2022/03/16 09:37:26;;;;;;;40.70;31.47;;;;;;;5.76;100.00;95431.44;5049549;28;20190;-65
2022/03/16 09:40:12;;;;;;;36.87;28.67;;;;;;;5.80;100.00;95429.44;5047020;28;20209;-65
2022/03/16 09:42:58;;;;;;;39.97;29.53;;;;;;;5.65;100.00;95426.19;5041129;28;20191;-65
2022/03/16 09:45:52;;;;;;;42.93;31.37;;;;;;;5.59;100.00;95421.66;5030523;28;20195;-65
2022/03/16 09:48:39;;;;;;;38.47;30.37;;;;;;;5.48;100.00;95424.53;5049846;28;20289;-65
2022/03/16 09:51:26;;;;;;;46.80;30.37;;;;;;;5.52;100.00;95430.66;5045971;28;21019;-65
2022/03/16 09:54:11;;;;;;;37.90;29.17;;;;;;;5.66;100.00;95435.09;5044256;28;20301;-65
2022/03/16 09:56:57;;;;;;;40.07;29.33;;;;;;;5.81;100.00;95429.03;5041654;28;20190;-65
2022/03/16 09:59:43;;;;;;;44.30;29.23;;;;;;;5.90;100.00;95428.53;5032523;28;20214;-64
2022/03/16 10:02:29;;;;;;;37.47;27.43;;;;;;;6.14;100.00;95433.50;5048808;28;20191;-65
2022/03/16 10:05:15;;;;;;;34.83;26.53;;;;;;;6.28;100.00;95429.00;5030078;28;20183;-66
2022/03/16 10:08:05;;;;;;;37.07;26.33;;;;;;;6.18;100.00;95429.97;5029256;28;20218;-66
2022/03/16 10:14:14;;;;;;;34.07;26.23;;;;;;;6.49;100.00;95434.00;5050679;28;20218;-65
2022/03/16 10:20:19;;;;;;;32.67;24.23;;;;;;;6.59;100.00;95436.50;5030714;28;20226;-65
2022/03/16 10:23:14;;;;;;;31.87;23.80;;;;;;;6.76;100.00;95435.38;5044174;28;20213;-66
2022/03/16 10:26:03;;;;;;;28.77;23.60;;;;;;;6.59;100.00;95435.75;5042512;28;20183;-65
2022/03/16 10:28:57;;;;;;;28.47;23.03;;;;;;;6.45;100.00;95434.06;5018794;28;20214;-66
2022/03/16 10:32:05;;;;;;;34.67;23.20;;;;;;;6.67;100.00;95431.72;5048860;28;20234;-65
2022/03/16 10:34:54;;;;;;;29.33;23.67;;;;;;;6.85;100.00;95432.88;5043013;28;20733;-65
2022/03/16 10:37:40;;;;;;;27.97;23.27;;;;;;;7.01;100.00;95424.75;5039135;28;20364;-66
2022/03/16 10:40:26;;;;;;;27.43;22.47;;;;;;;6.72;100.00;95412.22;5044086;28;20220;-66
2022/03/16 10:46:38;;;;;;;25.50;21.93;;;;;;;6.96;100.00;95422.56;5013927;28;20200;-65
2022/03/16 10:49:24;;;;;;;26.50;21.77;;;;;;;6.91;100.00;95408.69;5048528;28;20227;-65
2022/03/16 10:52:15;;;;;;;26.77;21.47;;;;;;;6.86;100.00;95401.81;5043237;28;20217;-65
2022/03/16 10:55:04;;;;;;;26.20;21.87;;;;;;;6.95;100.00;95406.69;5048933;28;20210;-66
2022/03/16 10:57:50;;;;;;;25.13;21.03;;;;;;;6.86;100.00;95409.19;5046555;28;20187;-65
2022/03/16 11:00:39;;;;;;;25.67;21.93;;;;;;;6.77;100.00;95407.06;5040884;28;20194;-65
2022/03/16 11:03:27;;;;;;;25.97;21.87;;;;;;;6.88;100.00;95394.03;5038397;28;20267;-65
2022/03/16 11:06:14;;;;;;;25.37;21.50;;;;;;;7.09;100.00;95396.25;5035046;28;20190;-65
2022/03/16 11:09:00;;;;;;;25.03;21.43;;;;;;;7.35;100.00;95383.63;5034970;28;20207;-65
2022/03/16 11:14:53;;;;;;;24.87;20.57;;;;;;;7.67;100.00;95372.00;5031784;28;20278;-65
2022/03/16 11:17:39;;;;;;;26.33;20.77;;;;;;;7.78;100.00;95378.69;5045403;28;20193;-65
2022/03/16 11:20:27;;;;;;;24.63;21.10;;;;;;;7.97;100.00;95369.66;5037285;28;20592;-65
2022/03/16 11:26:34;;;;;;;23.83;19.60;;;;;;;8.17;100.00;95364.84;5053396;28;20185;-65
2022/03/16 11:29:33;;;;;;;23.63;20.63;;;;;;;8.67;100.00;95374.38;5043513;28;20348;-65
2022/03/16 11:32:20;;;;;;;22.40;19.87;;;;;;;8.47;100.00;95363.63;5030893;28;20396;-65
2022/03/16 11:35:09;;;;;;;19.93;16.97;;;;;;;7.93;100.00;95362.75;5007414;28;20213;-65
2022/03/16 11:38:11;;;;;;;20.93;17.07;;;;;;;7.96;100.00;95368.09;5046068;28;20233;-65
2022/03/16 11:40:57;;;;;;;20.07;17.87;;;;;;;7.90;100.00;95369.06;5027642;28;20852;-65
2022/03/16 11:43:43;;;;;;;21.57;19.03;;;;;;;7.87;100.00;95362.53;5039067;28;20584;-65
2022/03/16 11:46:30;;;;;;;22.03;18.27;;;;;;;8.04;100.00;95368.69;5047124;28;20274;-65
2022/03/16 11:49:26;;;;;;;20.17;18.07;;;;;;;7.86;100.00;95371.88;5056468;28;20229;-65
2022/03/16 11:52:12;;;;;;;21.57;18.33;;;;;;;7.86;100.00;95363.72;5029908;28;20676;-65
2022/03/16 11:54:58;;;;;;;20.87;17.63;;;;;;;7.83;100.00;95364.56;5044735;28;20210;-65
2022/03/16 11:57:54;;;;;;;21.03;18.40;;;;;;;8.06;100.00;95364.34;5052740;28;20638;-65
2022/03/16 12:00:40;;;;;;;17.97;16.10;;;;;;;8.11;100.00;95350.22;5036983;28;20205;-65
2022/03/16 12:03:26;;;;;;;20.17;17.73;;;;;;;8.25;100.00;95357.25;5051603;28;20186;-65
2022/03/16 12:06:19;;;;;;;18.50;16.60;;;;;;;8.20;100.00;95355.81;5025358;28;20202;-65
2022/03/16 12:09:04;;;;;;;19.63;17.50;;;;;;;8.28;100.00;95362.59;5030404;28;20610;-65
2022/03/16 12:15:28;;;;;;;21.13;17.20;;;;;;;7.94;100.00;95346.00;5050383;28;20244;-65
2022/03/16 12:18:14;;;;;;;19.37;16.90;;;;;;;8.08;100.00;95353.81;5050323;28;20212;-65
2022/03/16 12:21:05;;;;;;;19.80;16.63;;;;;;;8.14;100.00;95352.09;5047283;28;20205;-65
2022/03/16 12:23:54;;;;;;;19.70;16.30;;;;;;;8.25;100.00;95344.44;5047399;28;20702;-65
2022/03/16 12:28:55;;;;;;;20.07;16.47;;;;;;;8.08;100.00;95337.47;5058312;28;20202;-65
2022/03/16 12:29:53;;;;;;;18.43;15.73;;;;;;;7.90;100.00;95337.19;5046172;28;20626;-65
2022/03/16 12:32:40;;;;;;;18.03;15.60;;;;;;;7.84;100.00;95336.19;5033660;28;20194;-65
2022/03/16 12:35:33;;;;;;;20.37;16.83;;;;;;;8.14;100.00;95338.50;5043753;28;20645;-65
2022/03/16 12:38:22;;;;;;;20.67;16.17;;;;;;;7.84;100.00;95330.00;5029143;28;21260;-65
2022/03/16 12:44:17;;;;;;;19.80;16.53;;;;;;;7.27;100.00;95338.81;5043544;28;20255;-65
2022/03/16 12:47:21;;;;;;;25.07;16.57;;;;;;;7.42;100.00;95331.06;5041099;28;20285;-65
2022/03/16 12:50:12;;;;;;;21.87;17.47;;;;;;;7.52;100.00;95333.53;5038425;28;20222;-65
2022/03/16 12:52:58;;;;;;;21.53;16.87;;;;;;;7.28;100.00;95337.63;5050985;28;20187;-65
2022/03/16 12:55:55;;;;;;;18.30;15.83;;;;;;;7.07;100.00;95333.47;5050014;28;20681;-65
2022/03/16 12:58:42;;;;;;;18.37;15.60;;;;;;;7.25;100.00;95330.31;5047902;28;20297;-65
2022/03/16 13:01:28;;;;;;;18.33;16.33;;;;;;;7.37;100.00;95326.91;5035385;28;20210;-64
2022/03/16 13:04:16;;;;;;;18.23;16.10;;;;;;;7.11;100.00;95315.13;5051539;28;20224;-65
2022/03/16 13:07:03;;;;;;;19.40;16.13;;;;;;;7.20;100.00;95312.59;5034488;28;20194;-65
2022/03/16 13:09:50;;;;;;;20.63;17.43;;;;;;;7.33;100.00;95316.13;5049193;28;20210;-64
2022/03/16 13:12:35;;;;;;;20.47;17.43;;;;;;;7.32;100.00;95314.63;5031929;28;20751;-65